Cruzeiro Do Canal — CSVG — position and weather

sailwx.info

Track history (hours):
 
Tides and Currents Weather Stations Pressure Air Temp Water Temp Dewpoint Dewpoint Depression Visibility Wind Speed Wind Dir Waves Ship Positions

Cruzeiro Do Canal

Last reported at 2015-Jul-05 03:34 UTC. Time now 2015-Jul-05 21:03 UTC.
Position N 38°32' W 028°37'.

Length 32 m.

Type: Passenger vessel. MMSI: 204701250.

Date/timePositionNaut miles runAvg speedWind from/ knotsBaromVisibWave heightAir tempDewpointWater temp
2015-Jul-05 03:34N 38°32' W 028°37'1010.2
2015-Jul-05 02:33N 38°34' W 028°24'7 6.5
2015-Jul-05 01:33N 38°36' W 028°16'6 6.0
2015-Jul-05 00:34N 38°41' W 028°12'0 0.0
2015-Jul-04 23:33N 38°41' W 028°12'0 0.0
2015-Jul-04 22:33N 38°41' W 028°12'0 0.0
2015-Jul-04 21:33N 38°41' W 028°12'2 1.8
2015-Jul-04 20:33N 38°39' W 028°13'9 8.7
2015-Jul-04 19:33N 38°32' W 028°19'9 9.2
2015-Jul-04 18:33N 38°34' W 028°31'5 5.2
2015-Jul-04 17:33N 38°32' W 028°37'0 0.0
2015-Jul-04 16:34N 38°32' W 028°37'0 0.0
2015-Jul-04 15:33N 38°32' W 028°37'0 0.0
2015-Jul-04 14:33N 38°32' W 028°37'0 0.0
2015-Jul-04 13:34N 38°32' W 028°37'6 5.6
2015-Jul-04 12:33N 38°34' W 028°30'9 8.9
2015-Jul-04 11:33N 38°32' W 028°19'1010.5
2015-Jul-04 10:33N 38°41' W 028°12'8 8.3
2015-Jul-04 09:33N 38°38' W 028°22'1111.0
2015-Jul-04 08:34N 38°33' W 028°35'  
2015-Jun-30 23:33N 38°32' W 028°36'1111.2
2015-Jun-30 22:33N 38°38' W 028°24'10 9.6
2015-Jun-30 21:33N 38°41' W 028°12'10 9.8
2015-Jun-30 20:33N 38°36' W 028°23'8 7.8
2015-Jun-30 19:33N 38°32' W 028°32'4 4.3
2015-Jun-30 18:33N 38°32' W 028°37'0 0.0
2015-Jun-30 17:33N 38°32' W 028°37'0 0.0
2015-Jun-30 16:33N 38°32' W 028°37'0 0.0
2015-Jun-30 15:33N 38°32' W 028°37'0 0.0
2015-Jun-30 14:33N 38°32' W 028°37'0 0.0
2015-Jun-30 13:34N 38°32' W 028°37'4 3.7
2015-Jun-30 12:33N 38°32' W 028°33'7 7.4
2015-Jun-30 11:33N 38°36' W 028°24'1110.6
2015-Jun-30 10:33N 38°41' W 028°12'8 7.6
2015-Jun-30 09:33N 38°37' W 028°21'1211.5
2015-Jun-30 08:33N 38°34' W 028°35'  
2015-Jun-27 22:33N 38°34' W 028°33'1111.0
2015-Jun-27 21:33N 38°38' W 028°19'5 5.4
2015-Jun-27 20:33N 38°39' W 028°13'9 9.1
2015-Jun-27 19:33N 38°32' W 028°19'8 8.5
2015-Jun-27 18:34N 38°34' W 028°30'6 6.1
2015-Jun-27 17:33N 38°32' W 028°37'0 0.0
2015-Jun-27 16:33N 38°32' W 028°37'0 0.0
2015-Jun-27 15:33N 38°32' W 028°37'0 0.0
2015-Jun-27 14:33N 38°32' W 028°37'0 0.0
2015-Jun-27 13:33N 38°32' W 028°37'6 6.1
2015-Jun-27 12:33N 38°34' W 028°30'9 8.5
2015-Jun-27 11:33N 38°32' W 028°19'10 9.9
2015-Jun-27 10:34N 38°40' W 028°12'6 6.4
2015-Jun-27 09:33N 38°38' W 028°20'1211.7
2015-Jun-27 08:33N 38°33' W 028°34'  
Track history (hours):
 
Tides and Currents Weather Stations Pressure Air Temp Water Temp Dewpoint Dewpoint Depression Visibility Wind Speed Wind Dir Waves Ship Positions

Cruzeiro Do Canal

Last reported at 2015-Jul-05 03:34 UTC. Time now 2015-Jul-05 21:03 UTC.
Position N 38°32' W 028°37'.

Length 32 m.

Type: Passenger vessel. MMSI: 204701250.

Date/timePositionNaut miles runAvg speedWind from/ knotsBaromVisibWave heightAir tempDewpointWater temp
2015-Jul-05 03:34N 38°32' W 028°37'1010.2
2015-Jul-05 02:33N 38°34' W 028°24'7 6.5
2015-Jul-05 01:33N 38°36' W 028°16'6 6.0
2015-Jul-05 00:34N 38°41' W 028°12'0 0.0
2015-Jul-04 23:33N 38°41' W 028°12'0 0.0
2015-Jul-04 22:33N 38°41' W 028°12'0 0.0
2015-Jul-04 21:33N 38°41' W 028°12'2 1.8
2015-Jul-04 20:33N 38°39' W 028°13'9 8.7
2015-Jul-04 19:33N 38°32' W 028°19'9 9.2
2015-Jul-04 18:33N 38°34' W 028°31'5 5.2
2015-Jul-04 17:33N 38°32' W 028°37'0 0.0
2015-Jul-04 16:34N 38°32' W 028°37'0 0.0
2015-Jul-04 15:33N 38°32' W 028°37'0 0.0
2015-Jul-04 14:33N 38°32' W 028°37'0 0.0
2015-Jul-04 13:34N 38°32' W 028°37'6 5.6
2015-Jul-04 12:33N 38°34' W 028°30'9 8.9
2015-Jul-04 11:33N 38°32' W 028°19'1010.5
2015-Jul-04 10:33N 38°41' W 028°12'8 8.3
2015-Jul-04 09:33N 38°38' W 028°22'1111.0
2015-Jul-04 08:34N 38°33' W 028°35'  
2015-Jun-30 23:33N 38°32' W 028°36'1111.2
2015-Jun-30 22:33N 38°38' W 028°24'10 9.6
2015-Jun-30 21:33N 38°41' W 028°12'10 9.8
2015-Jun-30 20:33N 38°36' W 028°23'8 7.8
2015-Jun-30 19:33N 38°32' W 028°32'4 4.3
2015-Jun-30 18:33N 38°32' W 028°37'0 0.0
2015-Jun-30 17:33N 38°32' W 028°37'0 0.0
2015-Jun-30 16:33N 38°32' W 028°37'0 0.0
2015-Jun-30 15:33N 38°32' W 028°37'0 0.0
2015-Jun-30 14:33N 38°32' W 028°37'0 0.0
2015-Jun-30 13:34N 38°32' W 028°37'4 3.7
2015-Jun-30 12:33N 38°32' W 028°33'7 7.4
2015-Jun-30 11:33N 38°36' W 028°24'1110.6
2015-Jun-30 10:33N 38°41' W 028°12'8 7.6
2015-Jun-30 09:33N 38°37' W 028°21'1211.5
2015-Jun-30 08:33N 38°34' W 028°35'  
2015-Jun-27 22:33N 38°34' W 028°33'1111.0
2015-Jun-27 21:33N 38°38' W 028°19'5 5.4
2015-Jun-27 20:33N 38°39' W 028°13'9 9.1
2015-Jun-27 19:33N 38°32' W 028°19'8 8.5
2015-Jun-27 18:34N 38°34' W 028°30'6 6.1
2015-Jun-27 17:33N 38°32' W 028°37'0 0.0
2015-Jun-27 16:33N 38°32' W 028°37'0 0.0
2015-Jun-27 15:33N 38°32' W 028°37'0 0.0
2015-Jun-27 14:33N 38°32' W 028°37'0 0.0
2015-Jun-27 13:33N 38°32' W 028°37'6 6.1
2015-Jun-27 12:33N 38°34' W 028°30'9 8.5
2015-Jun-27 11:33N 38°32' W 028°19'10 9.9
2015-Jun-27 10:34N 38°40' W 028°12'6 6.4
2015-Jun-27 09:33N 38°38' W 028°20'1211.7
2015-Jun-27 08:33N 38°33' W 028°34'  

Dump ship's entire track history